sensor_id;sensor_type;location;lat;lon;timestamp;temperature;humidity
66312;HTU21D;53114;51.138;6.008;2023-04-03T00:02:10;2.32;118.99
66312;HTU21D;53114;51.138;6.008;2023-04-03T00:04:36;2.30;118.99
66312;HTU21D;53114;51.138;6.008;2023-04-03T00:07:02;2.26;118.99
66312;HTU21D;53114;51.138;6.008;2023-04-03T00:09:28;2.19;118.99
66312;HTU21D;53114;51.138;6.008;2023-04-03T00:11:54;2.12;118.99
66312;HTU21D;53114;51.138;6.008;2023-04-03T00:14:21;2.09;118.99
66312;HTU21D;53114;51.138;6.008;2023-04-03T00:16:46;2.05;118.99
66312;HTU21D;53114;51.138;6.008;2023-04-03T00:19:12;2.01;118.99
66312;HTU21D;53114;51.138;6.008;2023-04-03T00:21:38;1.99;118.99
66312;HTU21D;53114;51.138;6.008;2023-04-03T00:24:06;2.01;118.99
66312;HTU21D;53114;51.138;6.008;2023-04-03T00:26:32;1.99;118.99
66312;HTU21D;53114;51.138;6.008;2023-04-03T00:28:58;1.98;118.99
66312;HTU21D;53114;51.138;6.008;2023-04-03T00:31:24;1.97;118.99
66312;HTU21D;53114;51.138;6.008;2023-04-03T00:33:50;1.97;118.99
66312;HTU21D;53114;51.138;6.008;2023-04-03T00:36:16;1.95;118.99
66312;HTU21D;53114;51.138;6.008;2023-04-03T00:38:42;1.95;118.99
66312;HTU21D;53114;51.138;6.008;2023-04-03T00:41:08;1.94;118.99
66312;HTU21D;53114;51.138;6.008;2023-04-03T00:43:34;1.92;118.99
66312;HTU21D;53114;51.138;6.008;2023-04-03T00:46:01;1.96;118.99
66312;HTU21D;53114;51.138;6.008;2023-04-03T00:48:43;1.91;118.99
66312;HTU21D;53114;51.138;6.008;2023-04-03T00:51:17;1.83;118.99
66312;HTU21D;53114;51.138;6.008;2023-04-03T00:53:50;1.80;118.99
66312;HTU21D;53114;51.138;6.008;2023-04-03T00:56:21;1.78;118.99
66312;HTU21D;53114;51.138;6.008;2023-04-03T00:59:10;1.71;118.99
66312;HTU21D;53114;51.138;6.008;2023-04-03T01:01:37;1.67;118.99
66312;HTU21D;53114;51.138;6.008;2023-04-03T01:04:05;1.70;118.99
66312;HTU21D;53114;51.138;6.008;2023-04-03T01:06:37;1.72;118.99
66312;HTU21D;53114;51.138;6.008;2023-04-03T01:09:07;1.70;118.99
66312;HTU21D;53114;51.138;6.008;2023-04-03T01:11:34;1.68;118.99
66312;HTU21D;53114;51.138;6.008;2023-04-03T01:14:01;1.67;118.99
66312;HTU21D;53114;51.138;6.008;2023-04-03T01:16:28;1.70;118.99
66312;HTU21D;53114;51.138;6.008;2023-04-03T01:18:59;1.68;118.99
66312;HTU21D;53114;51.138;6.008;2023-04-03T01:26:44;1.68;118.99
66312;HTU21D;53114;51.138;6.008;2023-04-03T01:29:10;1.66;118.99
66312;HTU21D;53114;51.138;6.008;2023-04-03T01:31:54;1.63;118.99
66312;HTU21D;53114;51.138;6.008;2023-04-03T01:34:23;1.65;118.99
66312;HTU21D;53114;51.138;6.008;2023-04-03T01:36:50;1.64;118.99
66312;HTU21D;53114;51.138;6.008;2023-04-03T01:39:17;1.60;118.99
66312;HTU21D;53114;51.138;6.008;2023-04-03T01:41:43;1.55;118.99
66312;HTU21D;53114;51.138;6.008;2023-04-03T01:44:16;1.52;118.99
66312;HTU21D;53114;51.138;6.008;2023-04-03T01:46:42;1.52;118.99
66312;HTU21D;53114;51.138;6.008;2023-04-03T01:49:09;1.50;118.99
66312;HTU21D;53114;51.138;6.008;2023-04-03T01:51:35;1.49;118.99
66312;HTU21D;53114;51.138;6.008;2023-04-03T01:54:01;1.47;118.99
66312;HTU21D;53114;51.138;6.008;2023-04-03T01:56:27;1.42;118.99
66312;HTU21D;53114;51.138;6.008;2023-04-03T01:58:54;1.38;118.99
66312;HTU21D;53114;51.138;6.008;2023-04-03T02:01:20;1.38;118.99
66312;HTU21D;53114;51.138;6.008;2023-04-03T02:03:47;1.35;118.99
66312;HTU21D;53114;51.138;6.008;2023-04-03T02:06:13;1.35;118.99
66312;HTU21D;53114;51.138;6.008;2023-04-03T02:08:39;1.36;118.99
66312;HTU21D;53114;51.138;6.008;2023-04-03T02:11:06;1.37;118.99
66312;HTU21D;53114;51.138;6.008;2023-04-03T02:13:32;1.41;118.99
66312;HTU21D;53114;51.138;6.008;2023-04-03T02:15:59;1.41;118.99
66312;HTU21D;53114;51.138;6.008;2023-04-03T02:18:31;1.45;118.99
66312;HTU21D;53114;51.138;6.008;2023-04-03T02:20:57;1.50;118.99
66312;HTU21D;53114;51.138;6.008;2023-04-03T02:23:23;1.57;118.99
66312;HTU21D;53114;51.138;6.008;2023-04-03T02:25:50;1.64;118.99
66312;HTU21D;53114;51.138;6.008;2023-04-03T02:28:16;1.70;118.99
66312;HTU21D;53114;51.138;6.008;2023-04-03T02:30:48;1.79;118.99
66312;HTU21D;53114;51.138;6.008;2023-04-03T02:33:22;1.88;118.99
66312;HTU21D;53114;51.138;6.008;2023-04-03T02:35:53;1.94;118.99
66312;HTU21D;53114;51.138;6.008;2023-04-03T02:38:21;1.91;118.99
66312;HTU21D;53114;51.138;6.008;2023-04-03T02:40:48;1.88;118.99
66312;HTU21D;53114;51.138;6.008;2023-04-03T02:43:14;1.85;118.99
66312;HTU21D;53114;51.138;6.008;2023-04-03T02:45:40;1.87;118.99
66312;HTU21D;53114;51.138;6.008;2023-04-03T02:48:06;1.91;118.99
66312;HTU21D;53114;51.138;6.008;2023-04-03T02:50:32;1.92;118.99
66312;HTU21D;53114;51.138;6.008;2023-04-03T02:52:58;1.92;118.99
66312;HTU21D;53114;51.138;6.008;2023-04-03T02:55:24;1.94;118.99
66312;HTU21D;53114;51.138;6.008;2023-04-03T02:57:52;1.97;118.99
66312;HTU21D;53114;51.138;6.008;2023-04-03T03:00:19;1.96;118.99
66312;HTU21D;53114;51.138;6.008;2023-04-03T03:02:45;1.97;118.99
66312;HTU21D;53114;51.138;6.008;2023-04-03T03:05:11;1.99;118.99
66312;HTU21D;53114;51.138;6.008;2023-04-03T03:07:38;2.03;118.99
66312;HTU21D;53114;51.138;6.008;2023-04-03T03:10:04;2.06;118.99
66312;HTU21D;53114;51.138;6.008;2023-04-03T03:12:31;2.08;118.99
66312;HTU21D;53114;51.138;6.008;2023-04-03T03:14:57;2.08;118.99
66312;HTU21D;53114;51.138;6.008;2023-04-03T03:17:23;2.09;118.99
66312;HTU21D;53114;51.138;6.008;2023-04-03T03:19:49;2.08;118.99
66312;HTU21D;53114;51.138;6.008;2023-04-03T03:22:16;2.10;118.99
66312;HTU21D;53114;51.138;6.008;2023-04-03T03:24:42;2.13;118.99
66312;HTU21D;53114;51.138;6.008;2023-04-03T03:27:08;2.13;118.99
66312;HTU21D;53114;51.138;6.008;2023-04-03T03:29:34;2.13;118.99
66312;HTU21D;53114;51.138;6.008;2023-04-03T03:32:01;2.11;118.99
66312;HTU21D;53114;51.138;6.008;2023-04-03T03:34:27;2.09;118.99
66312;HTU21D;53114;51.138;6.008;2023-04-03T03:36:53;2.08;118.99
66312;HTU21D;53114;51.138;6.008;2023-04-03T03:39:19;2.05;118.99
66312;HTU21D;53114;51.138;6.008;2023-04-03T03:41:45;2.02;118.99
66312;HTU21D;53114;51.138;6.008;2023-04-03T03:44:11;2.05;118.99
66312;HTU21D;53114;51.138;6.008;2023-04-03T03:46:37;2.06;118.99
66312;HTU21D;53114;51.138;6.008;2023-04-03T03:49:03;2.10;118.99
66312;HTU21D;53114;51.138;6.008;2023-04-03T03:51:30;2.09;118.99
66312;HTU21D;53114;51.138;6.008;2023-04-03T03:53:57;2.10;118.99
66312;HTU21D;53114;51.138;6.008;2023-04-03T03:56:23;2.11;118.99
66312;HTU21D;53114;51.138;6.008;2023-04-03T03:58:50;2.14;118.99
66312;HTU21D;53114;51.138;6.008;2023-04-03T04:01:16;2.16;118.99
66312;HTU21D;53114;51.138;6.008;2023-04-03T04:03:46;2.15;118.99
66312;HTU21D;53114;51.138;6.008;2023-04-03T04:06:17;2.19;118.99
66312;HTU21D;53114;51.138;6.008;2023-04-03T04:08:43;2.23;118.99
66312;HTU21D;53114;51.138;6.008;2023-04-03T04:11:10;2.24;118.99
66312;HTU21D;53114;51.138;6.008;2023-04-03T04:13:38;2.27;118.99
66312;HTU21D;53114;51.138;6.008;2023-04-03T04:16:06;2.27;118.99
66312;HTU21D;53114;51.138;6.008;2023-04-03T04:18:33;2.28;118.99
66312;HTU21D;53114;51.138;6.008;2023-04-03T04:20:59;2.29;118.99
66312;HTU21D;53114;51.138;6.008;2023-04-03T04:23:25;2.29;118.99
66312;HTU21D;53114;51.138;6.008;2023-04-03T04:25:52;2.29;118.99
66312;HTU21D;53114;51.138;6.008;2023-04-03T04:28:19;2.30;118.99
66312;HTU21D;53114;51.138;6.008;2023-04-03T04:30:47;2.29;118.99
66312;HTU21D;53114;51.138;6.008;2023-04-03T04:33:14;2.30;118.99
66312;HTU21D;53114;51.138;6.008;2023-04-03T04:35:42;2.29;118.99
66312;HTU21D;53114;51.138;6.008;2023-04-03T04:38:09;2.29;118.99
66312;HTU21D;53114;51.138;6.008;2023-04-03T04:40:36;2.28;118.99
66312;HTU21D;53114;51.138;6.008;2023-04-03T04:43:03;2.27;118.99
66312;HTU21D;53114;51.138;6.008;2023-04-03T04:45:29;2.27;118.99
66312;HTU21D;53114;51.138;6.008;2023-04-03T04:47:56;2.28;118.99
66312;HTU21D;53114;51.138;6.008;2023-04-03T04:50:23;2.26;118.99
66312;HTU21D;53114;51.138;6.008;2023-04-03T04:52:50;2.26;118.99
66312;HTU21D;53114;51.138;6.008;2023-04-03T04:55:16;2.25;118.99
66312;HTU21D;53114;51.138;6.008;2023-04-03T04:57:42;2.26;118.99
66312;HTU21D;53114;51.138;6.008;2023-04-03T05:00:09;2.25;118.99
66312;HTU21D;53114;51.138;6.008;2023-04-03T05:02:35;2.24;118.99
66312;HTU21D;53114;51.138;6.008;2023-04-03T05:05:01;2.27;118.99
66312;HTU21D;53114;51.138;6.008;2023-04-03T05:07:29;2.27;118.99
66312;HTU21D;53114;51.138;6.008;2023-04-03T05:09:56;2.27;118.99
66312;HTU21D;53114;51.138;6.008;2023-04-03T05:12:23;2.27;118.99
66312;HTU21D;53114;51.138;6.008;2023-04-03T05:14:54;2.25;118.99
66312;HTU21D;53114;51.138;6.008;2023-04-03T05:17:20;2.22;118.99
66312;HTU21D;53114;51.138;6.008;2023-04-03T05:19:50;2.24;118.99
66312;HTU21D;53114;51.138;6.008;2023-04-03T05:22:19;2.22;118.99
66312;HTU21D;53114;51.138;6.008;2023-04-03T05:24:46;2.22;118.99
66312;HTU21D;53114;51.138;6.008;2023-04-03T05:27:12;2.25;118.99
66312;HTU21D;53114;51.138;6.008;2023-04-03T05:29:42;2.27;118.99
66312;HTU21D;53114;51.138;6.008;2023-04-03T05:32:10;2.28;118.99
66312;HTU21D;53114;51.138;6.008;2023-04-03T05:34:36;2.29;118.99
66312;HTU21D;53114;51.138;6.008;2023-04-03T05:37:03;2.31;118.99
66312;HTU21D;53114;51.138;6.008;2023-04-03T05:39:30;2.32;118.99
66312;HTU21D;53114;51.138;6.008;2023-04-03T05:41:59;2.35;118.99
66312;HTU21D;53114;51.138;6.008;2023-04-03T05:44:25;2.37;118.99
66312;HTU21D;53114;51.138;6.008;2023-04-03T05:46:53;2.38;118.99
66312;HTU21D;53114;51.138;6.008;2023-04-03T05:49:19;2.40;118.99
66312;HTU21D;53114;51.138;6.008;2023-04-03T05:51:45;2.43;118.99
66312;HTU21D;53114;51.138;6.008;2023-04-03T05:54:27;2.46;118.99
66312;HTU21D;53114;51.138;6.008;2023-04-03T05:57:00;2.50;118.99
66312;HTU21D;53114;51.138;6.008;2023-04-03T05:59:27;2.53;118.99
66312;HTU21D;53114;51.138;6.008;2023-04-03T06:01:56;2.58;118.99
66312;HTU21D;53114;51.138;6.008;2023-04-03T06:04:22;2.61;118.99
66312;HTU21D;53114;51.138;6.008;2023-04-03T06:06:54;2.70;118.99
66312;HTU21D;53114;51.138;6.008;2023-04-03T06:09:23;2.71;118.99
66312;HTU21D;53114;51.138;6.008;2023-04-03T06:11:49;2.74;118.99
66312;HTU21D;53114;51.138;6.008;2023-04-03T06:14:16;2.79;118.99
66312;HTU21D;53114;51.138;6.008;2023-04-03T06:16:42;2.89;118.99
66312;HTU21D;53114;51.138;6.008;2023-04-03T06:19:10;2.95;118.99
66312;HTU21D;53114;51.138;6.008;2023-04-03T06:21:40;2.99;118.99
66312;HTU21D;53114;51.138;6.008;2023-04-03T06:24:06;2.99;118.99
66312;HTU21D;53114;51.138;6.008;2023-04-03T06:26:34;2.96;118.99
66312;HTU21D;53114;51.138;6.008;2023-04-03T06:29:00;2.98;118.99
66312;HTU21D;53114;51.138;6.008;2023-04-03T06:31:27;3.00;118.99
66312;HTU21D;53114;51.138;6.008;2023-04-03T06:33:53;3.04;118.99
66312;HTU21D;53114;51.138;6.008;2023-04-03T06:36:20;3.31;118.99
66312;HTU21D;53114;51.138;6.008;2023-04-03T06:38:47;3.67;118.99
66312;HTU21D;53114;51.138;6.008;2023-04-03T06:41:13;3.78;118.99
66312;HTU21D;53114;51.138;6.008;2023-04-03T06:43:39;3.84;118.99
66312;HTU21D;53114;51.138;6.008;2023-04-03T06:46:05;3.82;118.99
66312;HTU21D;53114;51.138;6.008;2023-04-03T06:48:32;3.82;118.99
66312;HTU21D;53114;51.138;6.008;2023-04-03T06:50:58;3.84;118.99
66312;HTU21D;53114;51.138;6.008;2023-04-03T06:53:24;3.92;118.99
66312;HTU21D;53114;51.138;6.008;2023-04-03T06:55:50;4.00;118.99
66312;HTU21D;53114;51.138;6.008;2023-04-03T06:58:16;4.03;118.99
66312;HTU21D;53114;51.138;6.008;2023-04-03T07:00:43;4.14;118.99
66312;HTU21D;53114;51.138;6.008;2023-04-03T07:03:09;4.19;118.99
66312;HTU21D;53114;51.138;6.008;2023-04-03T07:05:37;4.24;118.99
66312;HTU21D;53114;51.138;6.008;2023-04-03T07:08:04;4.27;118.99
66312;HTU21D;53114;51.138;6.008;2023-04-03T07:10:31;4.27;118.99
66312;HTU21D;53114;51.138;6.008;2023-04-03T07:12:57;4.29;118.99
66312;HTU21D;53114;51.138;6.008;2023-04-03T07:15:23;4.31;118.99
66312;HTU21D;53114;51.138;6.008;2023-04-03T07:17:50;4.36;118.99
66312;HTU21D;53114;51.138;6.008;2023-04-03T07:20:16;4.43;118.99
66312;HTU21D;53114;51.138;6.008;2023-04-03T07:22:42;4.51;118.99
66312;HTU21D;53114;51.138;6.008;2023-04-03T07:25:08;4.67;118.99
66312;HTU21D;53114;51.138;6.008;2023-04-03T07:27:35;4.80;118.99
66312;HTU21D;53114;51.138;6.008;2023-04-03T07:30:01;5.11;118.99
66312;HTU21D;53114;51.138;6.008;2023-04-03T07:32:27;5.86;118.99
66312;HTU21D;53114;51.138;6.008;2023-04-03T07:34:53;6.21;118.99
66312;HTU21D;53114;51.138;6.008;2023-04-03T07:37:19;6.28;118.99
66312;HTU21D;53114;51.138;6.008;2023-04-03T07:39:45;6.29;118.99
66312;HTU21D;53114;51.138;6.008;2023-04-03T07:42:11;6.33;118.99
66312;HTU21D;53114;51.138;6.008;2023-04-03T07:44:38;6.51;118.99
66312;HTU21D;53114;51.138;6.008;2023-04-03T07:47:04;6.57;117.35
66312;HTU21D;53114;51.138;6.008;2023-04-03T07:49:30;6.59;117.88
66312;HTU21D;53114;51.138;6.008;2023-04-03T07:51:58;6.85;118.92
66312;HTU21D;53114;51.138;6.008;2023-04-03T07:54:24;7.38;116.12
66312;HTU21D;53114;51.138;6.008;2023-04-03T07:56:50;7.71;114.32
66312;HTU21D;53114;51.138;6.008;2023-04-03T07:59:16;8.01;111.83
66312;HTU21D;53114;51.138;6.008;2023-04-03T08:01:42;8.56;112.74
66312;HTU21D;53114;51.138;6.008;2023-04-03T08:04:08;9.44;105.81
66312;HTU21D;53114;51.138;6.008;2023-04-03T08:06:34;10.69;96.93
66312;HTU21D;53114;51.138;6.008;2023-04-03T08:09:03;11.37;80.09
66312;HTU21D;53114;51.138;6.008;2023-04-03T08:11:29;11.59;72.83
66312;HTU21D;53114;51.138;6.008;2023-04-03T08:13:56;11.62;69.80
66312;HTU21D;53114;51.138;6.008;2023-04-03T08:16:23;11.41;70.98
66312;HTU21D;53114;51.138;6.008;2023-04-03T08:18:54;11.30;75.14
66312;HTU21D;53114;51.138;6.008;2023-04-03T08:21:20;11.81;81.52
66312;HTU21D;53114;51.138;6.008;2023-04-03T08:23:49;13.20;64.55
66312;HTU21D;53114;51.138;6.008;2023-04-03T08:26:20;13.62;55.04
66312;HTU21D;53114;51.138;6.008;2023-04-03T08:28:48;13.86;50.48
66312;HTU21D;53114;51.138;6.008;2023-04-03T08:31:18;13.71;49.89
66312;HTU21D;53114;51.138;6.008;2023-04-03T08:33:46;13.68;48.80
66312;HTU21D;53114;51.138;6.008;2023-04-03T08:36:24;14.10;48.82
66312;HTU21D;53114;51.138;6.008;2023-04-03T08:38:52;14.95;46.57
66312;HTU21D;53114;51.138;6.008;2023-04-03T08:41:38;16.45;41.60
66312;HTU21D;53114;51.138;6.008;2023-04-03T08:47:38;19.68;36.08
66312;HTU21D;53114;51.138;6.008;2023-04-03T08:50:07;21.02;32.11
66312;HTU21D;53114;51.138;6.008;2023-04-03T08:52:43;21.68;30.99
66312;HTU21D;53114;51.138;6.008;2023-04-03T08:55:22;22.62;29.74
66312;HTU21D;53114;51.138;6.008;2023-04-03T08:57:57;23.26;28.12
66312;HTU21D;53114;51.138;6.008;2023-04-03T09:00:30;23.52;27.21
66312;HTU21D;53114;51.138;6.008;2023-04-03T09:02:58;23.52;24.17
66312;HTU21D;53114;51.138;6.008;2023-04-03T09:05:55;22.96;25.34
66312;HTU21D;53114;51.138;6.008;2023-04-03T09:08:30;22.68;26.07
66312;HTU21D;53114;51.138;6.008;2023-04-03T09:11:24;23.21;25.94
66312;HTU21D;53114;51.138;6.008;2023-04-03T09:13:59;24.24;24.61
66312;HTU21D;53114;51.138;6.008;2023-04-03T09:16:58;24.46;22.22
66312;HTU21D;53114;51.138;6.008;2023-04-03T09:21:59;24.94;18.86
66312;HTU21D;53114;51.138;6.008;2023-04-03T09:24:28;24.95;18.78
66312;HTU21D;53114;51.138;6.008;2023-04-03T09:27:05;24.34;16.43
66312;HTU21D;53114;51.138;6.008;2023-04-03T09:29:39;24.34;17.62
66312;HTU21D;53114;51.138;6.008;2023-04-03T09:32:28;23.81;18.89
66312;HTU21D;53114;51.138;6.008;2023-04-03T09:35:02;22.98;19.73
66312;HTU21D;53114;51.138;6.008;2023-04-03T09:37:41;23.66;19.13
66312;HTU21D;53114;51.138;6.008;2023-04-03T09:40:29;23.98;18.88
66312;HTU21D;53114;51.138;6.008;2023-04-03T09:42:58;24.72;17.39
66312;HTU21D;53114;51.138;6.008;2023-04-03T09:45:25;25.27;16.64
66312;HTU21D;53114;51.138;6.008;2023-04-03T09:48:05;25.32;16.67
66312;HTU21D;53114;51.138;6.008;2023-04-03T09:50:33;25.56;16.73
66312;HTU21D;53114;51.138;6.008;2023-04-03T09:53:06;25.52;15.91
66312;HTU21D;53114;51.138;6.008;2023-04-03T09:55:42;25.24;16.28
66312;HTU21D;53114;51.138;6.008;2023-04-03T09:58:39;24.47;18.02
66312;HTU21D;53114;51.138;6.008;2023-04-03T10:01:23;24.71;18.17
66312;HTU21D;53114;51.138;6.008;2023-04-03T10:04:15;25.38;17.00
66312;HTU21D;53114;51.138;6.008;2023-04-03T10:06:47;25.59;17.30
66312;HTU21D;53114;51.138;6.008;2023-04-03T10:09:29;25.82;16.25
66312;HTU21D;53114;51.138;6.008;2023-04-03T10:12:00;25.45;17.45
66312;HTU21D;53114;51.138;6.008;2023-04-03T10:14:28;25.27;17.19
66312;HTU21D;53114;51.138;6.008;2023-04-03T10:19:59;24.42;17.77
66312;HTU21D;53114;51.138;6.008;2023-04-03T10:22:51;23.77;19.13
66312;HTU21D;53114;51.138;6.008;2023-04-03T10:28:11;23.95;18.44
66312;HTU21D;53114;51.138;6.008;2023-04-03T10:31:21;24.03;18.08
66312;HTU21D;53114;51.138;6.008;2023-04-03T10:39:43;23.16;18.09
66312;HTU21D;53114;51.138;6.008;2023-04-03T10:42:16;23.55;18.38
66312;HTU21D;53114;51.138;6.008;2023-04-03T10:53:24;23.60;17.86
66312;HTU21D;53114;51.138;6.008;2023-04-03T10:59:02;22.92;18.55
66312;HTU21D;53114;51.138;6.008;2023-04-03T11:01:40;22.78;19.11
66312;HTU21D;53114;51.138;6.008;2023-04-03T11:04:07;23.20;19.42
66312;HTU21D;53114;51.138;6.008;2023-04-03T11:09:21;23.62;19.65
66312;HTU21D;53114;51.138;6.008;2023-04-03T11:11:57;23.81;20.54
66312;HTU21D;53114;51.138;6.008;2023-04-03T11:14:29;23.67;20.52
66312;HTU21D;53114;51.138;6.008;2023-04-03T11:22:43;23.35;20.63
66312;HTU21D;53114;51.138;6.008;2023-04-03T11:27:58;21.88;23.43
66312;HTU21D;53114;51.138;6.008;2023-04-03T11:30:28;21.50;23.59
66312;HTU21D;53114;51.138;6.008;2023-04-03T11:33:17;21.70;21.68
66312;HTU21D;53114;51.138;6.008;2023-04-03T11:35:52;21.21;23.48
66312;HTU21D;53114;51.138;6.008;2023-04-03T11:38:25;21.20;23.82
66312;HTU21D;53114;51.138;6.008;2023-04-03T11:40:55;20.80;24.22
66312;HTU21D;53114;51.138;6.008;2023-04-03T11:43:31;19.83;26.30
66312;HTU21D;53114;51.138;6.008;2023-04-03T11:46:00;18.82;27.52
66312;HTU21D;53114;51.138;6.008;2023-04-03T11:50:56;18.07;29.61
66312;HTU21D;53114;51.138;6.008;2023-04-03T11:53:39;17.85;31.38
66312;HTU21D;53114;51.138;6.008;2023-04-03T12:01:52;16.79;30.85
66312;HTU21D;53114;51.138;6.008;2023-04-03T12:04:21;16.84;31.61
66312;HTU21D;53114;51.138;6.008;2023-04-03T12:11:49;15.98;31.80
66312;HTU21D;53114;51.138;6.008;2023-04-03T12:14:17;15.57;33.30
66312;HTU21D;53114;51.138;6.008;2023-04-03T12:16:47;15.41;34.58
66312;HTU21D;53114;51.138;6.008;2023-04-03T12:26:47;14.64;35.04
66312;HTU21D;53114;51.138;6.008;2023-04-03T12:29:24;14.65;36.39
66312;HTU21D;53114;51.138;6.008;2023-04-03T12:32:08;14.65;38.42
66312;HTU21D;53114;51.138;6.008;2023-04-03T12:46:02;14.01;36.29
66312;HTU21D;53114;51.138;6.008;2023-04-03T12:48:32;13.89;37.50
66312;HTU21D;53114;51.138;6.008;2023-04-03T12:51:00;13.81;38.11
66312;HTU21D;53114;51.138;6.008;2023-04-03T12:53:34;13.85;38.64
66312;HTU21D;53114;51.138;6.008;2023-04-03T12:56:28;13.65;35.01
66312;HTU21D;53114;51.138;6.008;2023-04-03T12:59:08;13.56;37.79
66312;HTU21D;53114;51.138;6.008;2023-04-03T13:01:38;13.53;39.46
66312;HTU21D;53114;51.138;6.008;2023-04-03T13:04:04;13.55;38.64
66312;HTU21D;53114;51.138;6.008;2023-04-03T13:06:37;13.48;38.43
66312;HTU21D;53114;51.138;6.008;2023-04-03T13:09:17;13.38;38.17
66312;HTU21D;53114;51.138;6.008;2023-04-03T13:11:45;13.35;38.82
66312;HTU21D;53114;51.138;6.008;2023-04-03T13:14:20;13.31;39.29
66312;HTU21D;53114;51.138;6.008;2023-04-03T13:17:14;13.19;38.82
66312;HTU21D;53114;51.138;6.008;2023-04-03T13:19:43;13.14;39.79
66312;HTU21D;53114;51.138;6.008;2023-04-03T13:24:52;13.08;38.49
66312;HTU21D;53114;51.138;6.008;2023-04-03T13:27:19;13.09;37.82
66312;HTU21D;53114;51.138;6.008;2023-04-03T13:29:51;12.96;38.08
66312;HTU21D;53114;51.138;6.008;2023-04-03T13:32:24;12.96;39.88
66312;HTU21D;53114;51.138;6.008;2023-04-03T13:34:51;12.96;39.11
66312;HTU21D;53114;51.138;6.008;2023-04-03T13:37:29;12.92;38.42
66312;HTU21D;53114;51.138;6.008;2023-04-03T13:42:37;12.82;39.67
66312;HTU21D;53114;51.138;6.008;2023-04-03T13:47:44;12.85;38.52
66312;HTU21D;53114;51.138;6.008;2023-04-03T13:52:46;12.82;38.05
66312;HTU21D;53114;51.138;6.008;2023-04-03T13:55:29;12.70;37.89
66312;HTU21D;53114;51.138;6.008;2023-04-03T13:57:59;12.74;38.35
66312;HTU21D;53114;51.138;6.008;2023-04-03T14:00:31;12.76;37.50
66312;HTU21D;53114;51.138;6.008;2023-04-03T14:02:58;12.71;37.07
66312;HTU21D;53114;51.138;6.008;2023-04-03T14:05:24;12.70;38.07
66312;HTU21D;53114;51.138;6.008;2023-04-03T14:07:52;12.78;38.30
66312;HTU21D;53114;51.138;6.008;2023-04-03T14:10:18;12.82;36.06
66312;HTU21D;53114;51.138;6.008;2023-04-03T14:12:44;12.80;35.25
66312;HTU21D;53114;51.138;6.008;2023-04-03T14:15:23;12.80;37.91
66312;HTU21D;53114;51.138;6.008;2023-04-03T14:17:51;12.87;38.44
66312;HTU21D;53114;51.138;6.008;2023-04-03T14:20:20;12.78;37.75
66312;HTU21D;53114;51.138;6.008;2023-04-03T14:22:48;12.73;38.75
66312;HTU21D;53114;51.138;6.008;2023-04-03T14:25:15;12.82;38.66
66312;HTU21D;53114;51.138;6.008;2023-04-03T14:27:44;13.04;38.73
66312;HTU21D;53114;51.138;6.008;2023-04-03T14:30:32;13.08;37.91
66312;HTU21D;53114;51.138;6.008;2023-04-03T14:33:00;13.22;37.88
66312;HTU21D;53114;51.138;6.008;2023-04-03T14:35:27;13.32;37.62
66312;HTU21D;53114;51.138;6.008;2023-04-03T14:37:54;13.38;37.05
66312;HTU21D;53114;51.138;6.008;2023-04-03T14:40:25;13.34;36.38
66312;HTU21D;53114;51.138;6.008;2023-04-03T14:42:51;13.32;36.72
66312;HTU21D;53114;51.138;6.008;2023-04-03T14:45:22;13.23;36.98
66312;HTU21D;53114;51.138;6.008;2023-04-03T14:47:51;13.10;36.68
66312;HTU21D;53114;51.138;6.008;2023-04-03T14:50:21;13.03;36.69
66312;HTU21D;53114;51.138;6.008;2023-04-03T14:52:50;13.04;36.62
66312;HTU21D;53114;51.138;6.008;2023-04-03T14:55:19;13.04;36.57
66312;HTU21D;53114;51.138;6.008;2023-04-03T14:57:46;13.04;36.65
66312;HTU21D;53114;51.138;6.008;2023-04-03T15:00:18;13.06;37.04
66312;HTU21D;53114;51.138;6.008;2023-04-03T15:02:45;13.09;36.81
66312;HTU21D;53114;51.138;6.008;2023-04-03T15:05:11;12.95;37.50
66312;HTU21D;53114;51.138;6.008;2023-04-03T15:07:52;12.99;37.27
66312;HTU21D;53114;51.138;6.008;2023-04-03T15:10:24;12.95;36.63
66312;HTU21D;53114;51.138;6.008;2023-04-03T15:12:51;12.86;37.30
66312;HTU21D;53114;51.138;6.008;2023-04-03T15:15:20;12.88;37.48
66312;HTU21D;53114;51.138;6.008;2023-04-03T15:17:49;12.93;38.20
66312;HTU21D;53114;51.138;6.008;2023-04-03T15:20:19;12.92;38.19
66312;HTU21D;53114;51.138;6.008;2023-04-03T15:22:45;12.89;38.49
66312;HTU21D;53114;51.138;6.008;2023-04-03T15:25:12;12.76;37.71
66312;HTU21D;53114;51.138;6.008;2023-04-03T15:27:38;12.78;37.78
66312;HTU21D;53114;51.138;6.008;2023-04-03T15:30:10;12.64;36.94
66312;HTU21D;53114;51.138;6.008;2023-04-03T15:32:37;12.65;36.86
66312;HTU21D;53114;51.138;6.008;2023-04-03T15:35:03;12.66;37.34
66312;HTU21D;53114;51.138;6.008;2023-04-03T15:37:29;12.58;37.30
66312;HTU21D;53114;51.138;6.008;2023-04-03T15:39:55;12.66;37.71
66312;HTU21D;53114;51.138;6.008;2023-04-03T15:42:21;12.74;38.47
66312;HTU21D;53114;51.138;6.008;2023-04-03T15:44:47;12.77;38.43
66312;HTU21D;53114;51.138;6.008;2023-04-03T15:47:13;12.81;37.48
66312;HTU21D;53114;51.138;6.008;2023-04-03T15:49:40;12.85;37.93
66312;HTU21D;53114;51.138;6.008;2023-04-03T15:52:06;12.86;37.30
66312;HTU21D;53114;51.138;6.008;2023-04-03T15:54:32;12.85;36.95
66312;HTU21D;53114;51.138;6.008;2023-04-03T15:56:58;12.87;37.90
66312;HTU21D;53114;51.138;6.008;2023-04-03T15:59:24;12.89;37.84
66312;HTU21D;53114;51.138;6.008;2023-04-03T16:01:51;12.84;36.96
66312;HTU21D;53114;51.138;6.008;2023-04-03T16:04:18;12.70;37.69
66312;HTU21D;53114;51.138;6.008;2023-04-03T16:06:46;12.74;36.57
66312;HTU21D;53114;51.138;6.008;2023-04-03T16:09:12;12.74;37.38
66312;HTU21D;53114;51.138;6.008;2023-04-03T16:11:38;12.65;37.50
66312;HTU21D;53114;51.138;6.008;2023-04-03T16:14:07;12.55;37.40
66312;HTU21D;53114;51.138;6.008;2023-04-03T16:16:35;12.50;37.75
66312;HTU21D;53114;51.138;6.008;2023-04-03T16:19:02;12.44;37.72
66312;HTU21D;53114;51.138;6.008;2023-04-03T16:21:28;12.46;38.40
66312;HTU21D;53114;51.138;6.008;2023-04-03T16:23:59;12.43;36.61
66312;HTU21D;53114;51.138;6.008;2023-04-03T16:26:26;12.25;37.68
66312;HTU21D;53114;51.138;6.008;2023-04-03T16:28:53;12.21;37.74
66312;HTU21D;53114;51.138;6.008;2023-04-03T16:31:20;12.16;37.56
66312;HTU21D;53114;51.138;6.008;2023-04-03T16:33:47;12.18;38.30
66312;HTU21D;53114;51.138;6.008;2023-04-03T16:36:13;12.12;37.66
66312;HTU21D;53114;51.138;6.008;2023-04-03T16:38:39;12.05;37.93
66312;HTU21D;53114;51.138;6.008;2023-04-03T16:41:05;12.04;38.50
66312;HTU21D;53114;51.138;6.008;2023-04-03T16:43:32;12.12;39.06
66312;HTU21D;53114;51.138;6.008;2023-04-03T16:45:58;12.13;38.97
66312;HTU21D;53114;51.138;6.008;2023-04-03T16:48:25;12.12;39.71
66312;HTU21D;53114;51.138;6.008;2023-04-03T16:50:50;12.17;39.04
66312;HTU21D;53114;51.138;6.008;2023-04-03T16:53:23;12.06;39.27
66312;HTU21D;53114;51.138;6.008;2023-04-03T16:55:50;11.92;39.16
66312;HTU21D;53114;51.138;6.008;2023-04-03T16:58:17;11.87;39.52